createdAt,value
2024-01-05T00:00:25.489Z,6.24
2024-01-05T00:01:25.485Z,6.24
2024-01-05T00:02:25.473Z,6.21
2024-01-05T00:03:25.526Z,6.24
2024-01-05T00:04:25.555Z,6.25
2024-01-05T00:05:25.417Z,6.24
2024-01-05T00:06:25.467Z,6.27
2024-01-05T00:07:25.382Z,6.28
2024-01-05T00:08:25.394Z,6.27
2024-01-05T00:09:25.383Z,6.28
2024-01-05T00:10:25.376Z,6.30
2024-01-05T00:11:25.342Z,6.30
2024-01-05T00:12:25.383Z,6.32
2024-01-05T00:13:25.311Z,6.32
2024-01-05T00:14:25.341Z,6.35
2024-01-05T00:15:25.386Z,6.35
2024-01-05T00:16:25.345Z,6.35
2024-01-05T00:17:25.291Z,6.33
2024-01-05T00:18:25.404Z,6.38
2024-01-05T00:19:25.478Z,6.39
2024-01-05T00:20:25.288Z,6.40
2024-01-05T00:21:25.326Z,6.40
2024-01-05T00:22:25.262Z,6.42
2024-01-05T00:23:25.203Z,6.43
2024-01-05T00:24:25.375Z,6.46
2024-01-05T00:25:25.217Z,6.43
2024-01-05T00:26:25.194Z,6.50
2024-01-05T00:27:25.186Z,6.51
2024-01-05T00:28:25.174Z,6.53
2024-01-05T00:29:25.870Z,6.54
2024-01-05T00:30:25.221Z,6.54
2024-01-05T00:31:25.190Z,6.54
2024-01-05T00:32:25.154Z,6.55
2024-01-05T00:33:25.182Z,6.57
2024-01-05T00:34:25.330Z,6.60
2024-01-05T00:35:25.087Z,6.61
2024-01-05T00:36:25.153Z,6.63
2024-01-05T00:37:25.079Z,6.64
2024-01-05T00:38:25.163Z,6.64
2024-01-05T00:39:25.069Z,6.64
2024-01-05T00:40:25.062Z,6.64
2024-01-05T00:41:25.028Z,6.64
2024-01-05T00:42:25.073Z,6.68
2024-01-05T00:43:25.008Z,6.65
2024-01-05T00:44:25.021Z,6.65
2024-01-05T00:45:25.051Z,6.64
2024-01-05T00:46:25.011Z,6.68
2024-01-05T00:47:24.996Z,6.68
2024-01-05T00:48:25.141Z,6.65
2024-01-05T00:49:24.995Z,6.68
2024-01-05T00:50:24.967Z,6.71
2024-01-05T00:51:24.946Z,6.69
2024-01-05T00:52:24.963Z,6.69
2024-01-05T00:53:24.902Z,6.69
2024-01-05T00:54:24.956Z,6.69
2024-01-05T00:55:24.894Z,6.69
2024-01-05T00:56:24.897Z,6.69
2024-01-05T00:57:24.912Z,6.69
2024-01-05T00:58:24.876Z,6.68
2024-01-05T00:59:24.874Z,6.71
2024-01-05T01:00:24.956Z,6.71
2024-01-05T01:01:24.872Z,6.72
2024-01-05T01:02:24.838Z,6.73
2024-01-05T01:03:24.885Z,6.72
2024-01-05T01:04:24.925Z,6.73
2024-01-05T01:05:24.794Z,6.73
2024-01-05T01:06:24.831Z,6.78
2024-01-05T01:07:24.763Z,6.76
2024-01-05T01:08:24.771Z,6.79
2024-01-05T01:09:24.788Z,6.79
2024-01-05T01:10:24.771Z,6.81
2024-01-05T01:11:27.978Z,6.79
2024-01-05T01:12:24.773Z,6.79
2024-01-05T01:13:24.705Z,6.83
2024-01-05T01:14:24.699Z,6.83
2024-01-05T01:15:24.712Z,6.86
2024-01-05T01:16:24.697Z,6.86
2024-01-05T01:17:24.663Z,6.87
2024-01-05T01:18:24.733Z,6.86
2024-01-05T01:19:24.775Z,6.86
2024-01-05T01:20:24.644Z,6.86
2024-01-05T01:21:24.656Z,6.86
2024-01-05T01:22:24.638Z,6.83
2024-01-05T01:23:24.631Z,6.86
2024-01-05T01:24:24.673Z,6.86
2024-01-05T01:25:24.584Z,6.82
2024-01-05T01:26:24.583Z,6.82
2024-01-05T01:27:24.591Z,6.83
2024-01-05T01:28:24.566Z,6.83
2024-01-05T01:29:24.531Z,6.82
2024-01-05T01:30:24.646Z,6.81
2024-01-05T01:31:24.540Z,6.81
2024-01-05T01:32:24.542Z,6.81
2024-01-05T01:33:24.703Z,6.79
2024-01-05T01:34:24.640Z,6.81
2024-01-05T01:35:24.471Z,6.82
2024-01-05T01:36:24.569Z,6.79
2024-01-05T01:37:24.449Z,6.79
2024-01-05T01:38:24.462Z,6.81
2024-01-05T01:39:24.544Z,6.78
2024-01-05T01:40:24.453Z,6.79
2024-01-05T01:41:24.426Z,6.78
2024-01-05T01:42:24.475Z,6.75
2024-01-05T01:43:24.445Z,6.75
2024-01-05T01:44:24.372Z,6.75
2024-01-05T01:45:24.407Z,6.73
2024-01-05T01:46:24.367Z,6.75
2024-01-05T01:47:24.364Z,6.75
2024-01-05T01:48:24.528Z,6.75
2024-01-05T01:49:24.445Z,6.73
2024-01-05T01:50:24.315Z,6.73
2024-01-05T01:51:24.368Z,6.71
2024-01-05T01:52:24.295Z,6.69
2024-01-05T01:53:24.341Z,6.68
2024-01-05T01:54:24.309Z,6.65
2024-01-05T01:55:24.287Z,6.68
2024-01-05T01:56:24.248Z,6.65
2024-01-05T01:57:24.290Z,6.68
2024-01-05T01:58:24.238Z,6.68
2024-01-05T01:59:24.238Z,6.69
2024-01-05T02:00:24.264Z,6.69
2024-01-05T02:01:24.262Z,6.69
2024-01-05T02:02:24.187Z,6.71
2024-01-05T02:03:24.277Z,6.75
2024-01-05T02:04:24.347Z,6.76
2024-01-05T02:05:24.212Z,6.78
2024-01-05T02:06:24.191Z,6.79
2024-01-05T02:07:24.147Z,6.81
2024-01-05T02:08:24.129Z,6.81
2024-01-05T02:09:24.227Z,6.81
2024-01-05T02:10:24.113Z,6.82
2024-01-05T02:11:24.143Z,6.83
2024-01-05T02:12:24.121Z,6.82
2024-01-05T02:13:24.098Z,6.81
2024-01-05T02:14:24.070Z,6.81
2024-01-05T02:15:24.132Z,6.82
2024-01-05T02:16:24.076Z,6.81
2024-01-05T02:17:24.051Z,6.81
2024-01-05T02:18:24.072Z,6.81
2024-01-05T02:19:24.145Z,6.78
2024-01-05T02:20:24.010Z,6.79
2024-01-05T02:21:24.081Z,6.78
2024-01-05T02:22:23.980Z,6.79
2024-01-05T02:23:23.993Z,6.79
2024-01-05T02:24:24.018Z,6.78
2024-01-05T02:25:23.962Z,6.76
2024-01-05T02:26:24.007Z,6.75
2024-01-05T02:27:24.043Z,6.75
2024-01-05T02:28:23.921Z,6.73
2024-01-05T02:29:23.933Z,6.73
2024-01-05T02:30:23.977Z,6.73
2024-01-05T02:31:24.001Z,6.71
2024-01-05T02:32:23.881Z,6.72
2024-01-05T02:33:23.975Z,6.69
2024-01-05T02:34:23.962Z,6.69
2024-01-05T02:35:23.881Z,6.68
2024-01-05T02:36:23.863Z,6.71
2024-01-05T02:37:23.869Z,6.68
2024-01-05T02:38:23.810Z,6.64
2024-01-05T02:39:23.841Z,6.64
2024-01-05T02:40:23.794Z,6.63
2024-01-05T02:41:23.802Z,6.63
2024-01-05T02:42:23.786Z,6.60
2024-01-05T02:43:23.781Z,6.61
2024-01-05T02:44:23.766Z,6.61
2024-01-05T02:45:23.792Z,6.60
2024-01-05T02:46:23.732Z,6.61
2024-01-05T02:47:23.736Z,6.64
2024-01-05T02:48:23.899Z,6.63
2024-01-05T02:49:23.792Z,6.64
2024-01-05T02:50:23.702Z,6.63
2024-01-05T02:51:23.709Z,6.64
2024-01-05T02:52:23.675Z,6.65
2024-01-05T02:53:23.676Z,6.68
2024-01-05T02:54:23.669Z,6.65
2024-01-05T02:55:23.681Z,6.64
2024-01-05T02:56:23.628Z,6.64
2024-01-05T02:57:23.654Z,6.65
2024-01-05T02:58:23.607Z,6.65
2024-01-05T02:59:23.626Z,6.65
2024-01-05T03:00:23.635Z,6.65
2024-01-05T03:01:23.637Z,6.65
2024-01-05T03:02:23.583Z,6.64
2024-01-05T03:03:23.724Z,6.65
2024-01-05T03:04:23.579Z,6.65
2024-01-05T03:05:23.594Z,6.68
2024-01-05T03:06:23.569Z,6.69
2024-01-05T03:07:23.552Z,6.69
2024-01-05T03:08:23.536Z,6.68
2024-01-05T03:09:23.567Z,6.68
2024-01-05T03:10:23.495Z,6.69
2024-01-05T03:11:23.497Z,6.69
2024-01-05T03:12:23.490Z,6.69
2024-01-05T03:13:23.470Z,6.69
2024-01-05T03:14:23.453Z,6.69
2024-01-05T03:15:23.510Z,6.71
2024-01-05T03:16:23.425Z,6.71
2024-01-05T03:17:23.443Z,6.69
2024-01-05T03:18:23.472Z,6.69
2024-01-05T03:19:23.486Z,6.71
2024-01-05T03:20:23.385Z,6.71
2024-01-05T03:21:23.400Z,6.71
2024-01-05T03:22:23.411Z,6.68
2024-01-05T03:23:23.394Z,6.71
2024-01-05T03:24:23.444Z,6.69
2024-01-05T03:25:23.356Z,6.69
2024-01-05T03:26:23.348Z,6.71
2024-01-05T03:27:23.397Z,6.69
2024-01-05T03:28:23.309Z,6.68
2024-01-05T03:29:23.315Z,6.68
2024-01-05T03:30:23.358Z,6.68
2024-01-05T03:31:23.323Z,6.69
2024-01-05T03:32:23.309Z,6.64
2024-01-05T03:33:23.420Z,6.69
2024-01-05T03:34:23.309Z,6.68
2024-01-05T03:35:23.268Z,6.68
2024-01-05T03:36:23.247Z,6.68
2024-01-05T03:37:23.233Z,6.68
2024-01-05T03:38:23.203Z,6.68
2024-01-05T03:39:23.302Z,6.68
2024-01-05T03:40:23.194Z,6.68
2024-01-05T03:41:23.199Z,6.65
2024-01-05T03:42:23.184Z,6.65
2024-01-05T03:43:24.253Z,6.65
2024-01-05T03:44:23.137Z,6.64
2024-01-05T03:45:23.177Z,6.63
2024-01-05T03:46:23.559Z,6.63
2024-01-05T03:47:23.121Z,6.61
2024-01-05T03:48:23.164Z,6.61
2024-01-05T03:49:23.172Z,6.61
2024-01-05T03:50:23.100Z,6.61
2024-01-05T03:51:23.144Z,6.63
2024-01-05T03:52:23.064Z,6.63
2024-01-05T03:53:23.052Z,6.60
2024-01-05T03:54:23.069Z,6.61
2024-01-05T03:55:23.053Z,6.61
2024-01-05T03:56:23.039Z,6.63
2024-01-05T03:57:23.157Z,6.61
2024-01-05T03:58:22.998Z,6.60
2024-01-05T03:59:23.014Z,6.58
2024-01-05T04:00:23.037Z,6.57
2024-01-05T04:01:23.013Z,6.55
2024-01-05T04:02:22.981Z,6.57
2024-01-05T04:03:23.049Z,6.57
2024-01-05T04:04:23.174Z,6.54
2024-01-05T04:05:22.970Z,6.55
2024-01-05T04:06:23.003Z,6.54
2024-01-05T04:07:22.935Z,6.55
2024-01-05T04:08:22.890Z,6.55
2024-01-05T04:09:22.966Z,6.55
2024-01-05T04:10:22.924Z,6.57
2024-01-05T04:11:22.933Z,6.58
2024-01-05T04:12:23.001Z,6.57
2024-01-05T04:13:22.871Z,6.57
2024-01-05T04:14:22.863Z,6.55
2024-01-05T04:15:22.912Z,6.55
2024-01-05T04:16:22.808Z,6.54
2024-01-05T04:17:22.898Z,6.54
2024-01-05T04:18:22.915Z,6.54
2024-01-05T04:19:22.860Z,6.55
2024-01-05T04:20:22.771Z,6.57
2024-01-05T04:21:22.799Z,6.57
2024-01-05T04:22:22.777Z,6.57
2024-01-05T04:23:22.759Z,6.57
2024-01-05T04:24:22.789Z,6.58
2024-01-05T04:25:22.747Z,6.57
2024-01-05T04:26:22.725Z,6.61
2024-01-05T04:27:22.789Z,6.60
2024-01-05T04:28:22.714Z,6.60
2024-01-05T04:29:22.711Z,6.60
2024-01-05T04:30:22.725Z,6.60
2024-01-05T04:31:22.691Z,6.58
2024-01-05T04:32:22.659Z,6.57
2024-01-05T04:33:22.802Z,6.58
2024-01-05T04:34:22.703Z,6.58
2024-01-05T04:35:22.633Z,6.57
2024-01-05T04:36:22.639Z,6.55
2024-01-05T04:37:22.626Z,6.54
2024-01-05T04:38:22.583Z,6.54
2024-01-05T04:39:22.615Z,6.53
2024-01-05T04:40:22.589Z,6.51
2024-01-05T04:41:22.635Z,6.50
2024-01-05T04:42:22.568Z,6.51
2024-01-05T04:43:22.565Z,6.50
2024-01-05T04:44:22.527Z,6.50
2024-01-05T04:45:22.614Z,6.48
2024-01-05T04:46:22.502Z,6.45
2024-01-05T04:47:22.508Z,6.46
2024-01-05T04:48:22.545Z,6.46
2024-01-05T04:49:22.579Z,6.46
2024-01-05T04:50:22.483Z,6.45
2024-01-05T04:51:22.548Z,6.45
2024-01-05T04:52:22.449Z,6.42
2024-01-05T04:53:22.464Z,6.42
2024-01-05T04:54:22.479Z,6.42
2024-01-05T04:55:22.424Z,6.40
2024-01-05T04:56:22.463Z,6.40
2024-01-05T04:57:22.468Z,6.42
2024-01-05T04:58:22.376Z,6.40
2024-01-05T04:59:22.425Z,6.39
2024-01-05T05:00:22.392Z,6.38
2024-01-05T05:01:22.392Z,6.38
2024-01-05T05:02:22.341Z,6.39
2024-01-05T05:03:22.438Z,6.38
2024-01-05T05:04:22.315Z,6.36
2024-01-05T05:05:22.369Z,6.36
2024-01-05T05:06:22.411Z,6.38
2024-01-05T05:07:22.304Z,6.36
2024-01-05T05:08:22.315Z,6.36
2024-01-05T05:09:22.332Z,6.35
2024-01-05T05:10:22.264Z,6.35
2024-01-05T05:11:22.265Z,6.33
2024-01-05T05:12:22.285Z,6.35
2024-01-05T05:13:22.275Z,6.33
2024-01-05T05:14:22.218Z,6.33
2024-01-05T05:15:22.261Z,6.32
2024-01-05T05:16:22.195Z,6.30
2024-01-05T05:17:22.252Z,6.32
2024-01-05T05:18:22.278Z,6.30
2024-01-05T05:19:22.273Z,6.30
2024-01-05T05:20:22.157Z,6.30
2024-01-05T05:21:22.186Z,6.28
2024-01-05T05:22:22.137Z,6.27
2024-01-05T05:23:22.145Z,6.27
2024-01-05T05:24:22.174Z,6.28
2024-01-05T05:25:22.138Z,6.25
2024-01-05T05:26:22.101Z,6.27
2024-01-05T05:27:22.151Z,6.28
2024-01-05T05:28:22.092Z,6.28
2024-01-05T05:29:22.084Z,6.25
2024-01-05T05:30:22.196Z,6.28
2024-01-05T05:31:22.147Z,6.27
2024-01-05T05:32:22.036Z,6.25
2024-01-05T05:33:22.197Z,6.27
2024-01-05T05:34:22.074Z,6.28
2024-01-05T05:35:22.016Z,6.27
2024-01-05T05:36:22.025Z,6.25
2024-01-05T05:37:22.002Z,6.25
2024-01-05T05:38:21.990Z,6.25
2024-01-05T05:39:22.017Z,6.24
2024-01-05T05:40:21.940Z,6.21
2024-01-05T05:41:21.959Z,6.24
2024-01-05T05:42:22.016Z,6.20
2024-01-05T05:43:21.940Z,6.24
2024-01-05T05:44:21.903Z,6.20
2024-01-05T05:45:21.946Z,6.19
2024-01-05T05:46:21.901Z,6.19
2024-01-05T05:47:21.898Z,6.19
2024-01-05T05:48:21.987Z,6.19
2024-01-05T05:49:21.918Z,6.19
2024-01-05T05:50:21.845Z,6.20
2024-01-05T05:51:21.904Z,6.19
2024-01-05T05:52:21.836Z,6.19
2024-01-05T05:53:21.846Z,6.19
2024-01-05T05:54:21.902Z,6.19
2024-01-05T05:55:21.810Z,6.17
2024-01-05T05:56:21.814Z,6.19
2024-01-05T05:57:21.824Z,6.19
2024-01-05T05:58:21.788Z,6.17
2024-01-05T05:59:21.748Z,6.17
2024-01-05T06:00:21.813Z,6.17
2024-01-05T06:01:21.759Z,6.16
2024-01-05T06:02:21.748Z,6.14
2024-01-05T06:03:21.779Z,6.16
2024-01-05T06:04:21.737Z,6.14
2024-01-05T06:05:21.725Z,6.16
2024-01-05T06:06:21.869Z,6.16
2024-01-05T06:07:21.694Z,6.16
2024-01-05T06:08:21.674Z,6.16
2024-01-05T06:09:21.663Z,6.14
2024-01-05T06:10:21.671Z,6.17
2024-01-05T06:11:21.648Z,6.17
2024-01-05T06:12:21.705Z,6.16
2024-01-05T06:13:21.621Z,6.11
2024-01-05T06:14:21.656Z,6.14
2024-01-05T06:15:21.619Z,6.16
2024-01-05T06:16:21.586Z,6.14
2024-01-05T06:17:21.570Z,6.14
2024-01-05T06:18:21.699Z,6.14
2024-01-05T06:19:21.718Z,6.13
2024-01-05T06:20:21.559Z,6.11
2024-01-05T06:21:21.611Z,6.13
2024-01-05T06:22:21.554Z,6.11
2024-01-05T06:23:21.504Z,6.11
2024-01-05T06:24:21.553Z,6.13
2024-01-05T06:25:21.495Z,6.13
2024-01-05T06:26:21.502Z,6.13
2024-01-05T06:27:25.679Z,6.13
2024-01-05T06:28:22.950Z,6.13
2024-01-05T06:29:21.446Z,6.14
2024-01-05T06:30:21.623Z,6.16
2024-01-05T06:31:21.453Z,6.17
2024-01-05T06:32:21.449Z,6.19
2024-01-05T06:33:21.623Z,6.20
2024-01-05T06:34:21.504Z,6.21
2024-01-05T06:35:21.396Z,6.24
2024-01-05T06:36:21.428Z,6.27
2024-01-05T06:37:21.375Z,6.25
2024-01-05T06:38:21.375Z,6.28
2024-01-05T06:39:21.443Z,6.28
2024-01-05T06:40:21.344Z,6.30
2024-01-05T06:41:21.316Z,6.28
2024-01-05T06:42:21.362Z,6.28
2024-01-05T06:43:21.288Z,6.28
2024-01-05T06:44:21.305Z,6.30
2024-01-05T06:45:21.340Z,6.28
2024-01-05T06:46:21.305Z,6.28
2024-01-05T06:47:21.270Z,6.30
2024-01-05T06:48:21.571Z,6.30
2024-01-05T06:49:21.502Z,6.30
2024-01-05T06:50:21.536Z,6.28
2024-01-05T06:51:21.232Z,6.28
2024-01-05T06:52:21.224Z,6.30
2024-01-05T06:53:21.210Z,6.30
2024-01-05T06:54:21.244Z,6.30
2024-01-05T06:55:21.178Z,6.30
2024-01-05T06:56:21.203Z,6.28
2024-01-05T06:57:21.195Z,6.28
2024-01-05T06:58:21.172Z,6.32
2024-01-05T06:59:21.150Z,6.27
2024-01-05T07:00:21.207Z,6.32
2024-01-05T07:01:21.111Z,6.30
2024-01-05T07:02:21.136Z,6.30
2024-01-05T07:03:21.197Z,6.30
2024-01-05T07:04:21.113Z,6.32
2024-01-05T07:05:21.117Z,6.32
2024-01-05T07:06:21.113Z,6.32
2024-01-05T07:07:21.077Z,6.32
2024-01-05T07:08:21.071Z,6.33
2024-01-05T07:09:21.105Z,6.35
2024-01-05T07:10:21.051Z,6.36
2024-01-05T07:11:21.012Z,6.38
2024-01-05T07:12:21.073Z,6.38
2024-01-05T07:13:21.020Z,6.39
2024-01-05T07:14:21.010Z,6.39
2024-01-05T07:15:20.993Z,6.38
2024-01-05T07:16:20.995Z,6.40
2024-01-05T07:17:21.000Z,6.43
2024-01-05T07:18:21.103Z,6.42
2024-01-05T07:19:21.073Z,6.43
2024-01-05T07:20:20.939Z,6.43
2024-01-05T07:21:20.970Z,6.42
2024-01-05T07:22:20.918Z,6.45
2024-01-05T07:23:20.881Z,6.43
2024-01-05T07:24:20.911Z,6.45
2024-01-05T07:25:20.872Z,6.45
2024-01-05T07:26:20.896Z,6.45
2024-01-05T07:27:20.856Z,6.43
2024-01-05T07:28:20.892Z,6.42
2024-01-05T07:29:20.819Z,6.43
2024-01-05T07:30:20.916Z,6.43
2024-01-05T07:31:20.866Z,6.45
2024-01-05T07:32:20.812Z,6.43
2024-01-05T07:33:20.922Z,6.46
2024-01-05T07:34:20.892Z,6.45
2024-01-05T07:35:20.771Z,6.46
2024-01-05T07:36:20.899Z,6.45
2024-01-05T07:37:20.743Z,6.43
2024-01-05T07:38:20.768Z,6.45
2024-01-05T07:39:20.758Z,6.46
2024-01-05T07:40:20.720Z,6.46
2024-01-05T07:41:20.692Z,6.45
2024-01-05T07:42:20.755Z,6.46
2024-01-05T07:43:20.674Z,6.50
2024-01-05T07:44:20.708Z,6.51
2024-01-05T07:45:20.676Z,6.51
2024-01-05T07:46:20.663Z,6.53
2024-01-05T07:47:20.637Z,6.51
2024-01-05T07:48:20.901Z,6.54
2024-01-05T07:49:20.844Z,6.57
2024-01-05T07:50:20.648Z,6.58
2024-01-05T07:51:20.714Z,6.61
2024-01-05T07:52:20.616Z,6.61
2024-01-05T07:53:20.574Z,6.61
2024-01-05T07:54:20.598Z,6.63
2024-01-05T07:55:20.555Z,6.61
2024-01-05T07:56:20.575Z,6.61
2024-01-05T07:57:20.567Z,6.63
2024-01-05T07:58:20.541Z,6.63
2024-01-05T07:59:20.503Z,6.63
2024-01-05T08:00:20.544Z,6.61
2024-01-05T08:01:20.591Z,6.61
2024-01-05T08:02:20.507Z,6.63
2024-01-05T08:03:20.532Z,6.64
2024-01-05T08:04:20.697Z,6.64
2024-01-05T08:05:20.529Z,6.65
2024-01-05T08:06:20.715Z,6.69
2024-01-05T08:07:20.424Z,6.71
2024-01-05T08:08:20.466Z,6.73
2024-01-05T08:09:21.186Z,6.76
2024-01-05T08:10:20.427Z,6.76
2024-01-05T08:11:20.390Z,6.76
2024-01-05T08:12:20.416Z,6.78
2024-01-05T08:13:20.363Z,6.79
2024-01-05T08:14:20.385Z,6.82
2024-01-05T08:15:20.361Z,6.86
2024-01-05T08:16:20.352Z,6.87
2024-01-05T08:17:20.338Z,6.87
2024-01-05T08:18:20.493Z,6.87
2024-01-05T08:19:20.333Z,6.91
2024-01-05T08:20:20.298Z,6.91
2024-01-05T08:21:20.301Z,6.94
2024-01-05T08:22:20.300Z,6.93
2024-01-05T08:23:20.270Z,6.99
2024-01-05T08:24:20.331Z,6.99
2024-01-05T08:25:22.805Z,7.01
2024-01-05T08:26:20.235Z,7.04
2024-01-05T08:27:20.236Z,7.05
2024-01-05T08:28:20.250Z,7.07
2024-01-05T08:29:20.193Z,7.09
2024-01-05T08:30:20.393Z,7.11
2024-01-05T08:31:20.255Z,7.11
2024-01-05T08:32:20.184Z,7.14
2024-01-05T08:33:20.291Z,7.15
2024-01-05T08:34:20.394Z,7.16
2024-01-05T08:35:20.132Z,7.16
2024-01-05T08:36:20.168Z,7.18
2024-01-05T08:37:20.105Z,7.18
2024-01-05T08:38:20.117Z,7.18
2024-01-05T08:39:20.185Z,7.18
2024-01-05T08:40:20.095Z,7.18
2024-01-05T08:41:20.094Z,7.19
2024-01-05T08:42:20.113Z,7.19
2024-01-05T08:43:20.088Z,7.21
2024-01-05T08:44:20.060Z,7.24
2024-01-05T08:45:20.069Z,7.29
2024-01-05T08:46:20.072Z,7.30
2024-01-05T08:47:20.033Z,7.29
2024-01-05T08:48:20.104Z,7.27
2024-01-05T08:49:20.102Z,7.29
2024-01-05T08:50:20.135Z,7.27
2024-01-05T08:51:19.994Z,7.27
2024-01-05T08:52:19.978Z,7.23
2024-01-05T08:53:19.956Z,7.24
2024-01-05T08:54:19.980Z,7.23
2024-01-05T08:55:19.930Z,7.23
2024-01-05T08:56:19.972Z,7.26
2024-01-05T08:57:19.981Z,7.29
2024-01-05T08:58:19.968Z,7.32
2024-01-05T08:59:19.897Z,7.32
2024-01-05T09:00:20.042Z,7.32
2024-01-05T09:01:19.915Z,7.32
2024-01-05T09:02:19.875Z,7.33
2024-01-05T09:03:19.936Z,7.34
2024-01-05T09:04:19.979Z,7.36
2024-01-05T09:05:19.860Z,7.41
2024-01-05T09:06:19.923Z,7.44
2024-01-05T09:07:19.840Z,7.48
2024-01-05T09:08:19.817Z,7.51
2024-01-05T09:09:19.833Z,7.55
2024-01-05T09:10:19.797Z,7.96
2024-01-05T09:11:19.796Z,8.54
2024-01-05T09:12:19.844Z,8.78
2024-01-05T09:13:19.786Z,9.04
2024-01-05T09:14:19.763Z,9.26
2024-01-05T09:15:19.783Z,9.42
2024-01-05T09:16:19.751Z,9.32
2024-01-05T09:17:19.723Z,9.20
2024-01-05T09:18:19.910Z,9.19
2024-01-05T09:19:21.997Z,8.89
2024-01-05T09:20:19.701Z,8.57
2024-01-05T09:21:19.704Z,8.31
2024-01-05T09:22:19.676Z,8.31
2024-01-05T09:23:19.658Z,8.20
2024-01-05T09:24:19.723Z,8.10
2024-01-05T09:25:19.634Z,8.04
2024-01-05T09:26:19.642Z,8.02
2024-01-05T09:27:19.670Z,7.95
2024-01-05T09:28:19.620Z,7.94
2024-01-05T09:29:19.575Z,7.91
2024-01-05T09:30:19.736Z,7.94
2024-01-05T09:31:19.636Z,8.00
2024-01-05T09:32:19.577Z,8.03
2024-01-05T09:33:19.653Z,8.00
2024-01-05T09:34:19.672Z,7.99
2024-01-05T09:35:19.510Z,7.99
2024-01-05T09:36:19.582Z,7.95
2024-01-05T09:37:19.481Z,7.92
2024-01-05T09:38:19.492Z,7.89
2024-01-05T09:39:19.488Z,7.85
2024-01-05T09:40:19.476Z,7.86
2024-01-05T09:41:19.461Z,7.89
2024-01-05T09:42:19.479Z,8.07
2024-01-05T09:43:19.421Z,8.14
2024-01-05T09:44:19.436Z,8.24
2024-01-05T09:45:19.457Z,8.24
2024-01-05T09:46:19.415Z,8.29
2024-01-05T09:47:19.389Z,8.31
2024-01-05T09:48:19.475Z,8.29
2024-01-05T09:49:19.540Z,8.29
2024-01-05T09:50:19.564Z,8.31
2024-01-05T09:51:19.557Z,8.31
2024-01-05T09:52:19.348Z,8.28
2024-01-05T09:53:19.311Z,8.22
2024-01-05T09:54:19.362Z,8.24
2024-01-05T09:55:19.307Z,8.25
2024-01-05T09:56:19.350Z,8.25
2024-01-05T09:57:19.631Z,8.24
2024-01-05T09:58:19.302Z,8.24
2024-01-05T09:59:19.241Z,8.24
2024-01-05T10:00:19.287Z,8.24
2024-01-05T10:01:19.283Z,8.21
2024-01-05T10:02:19.247Z,8.21
2024-01-05T10:03:19.316Z,8.17
2024-01-05T10:04:19.261Z,8.18
2024-01-05T10:05:19.280Z,8.18
2024-01-05T10:06:19.347Z,8.21
2024-01-05T10:07:19.155Z,8.22
2024-01-05T10:08:19.165Z,8.20
2024-01-05T10:09:19.157Z,8.20
2024-01-05T10:10:19.142Z,8.17
2024-01-05T10:11:19.123Z,8.13
2024-01-05T10:12:19.324Z,8.14
2024-01-05T10:13:19.133Z,8.09
2024-01-05T10:14:19.077Z,8.13
2024-01-05T10:15:19.124Z,8.09
2024-01-05T10:16:19.082Z,8.06
2024-01-05T10:17:19.082Z,8.00
2024-01-05T10:18:22.152Z,8.02
2024-01-05T10:19:19.357Z,8.03
2024-01-05T10:20:19.130Z,8.00
2024-01-05T10:21:19.081Z,8.00
2024-01-05T10:22:18.992Z,7.95
2024-01-05T10:23:19.012Z,7.88
2024-01-05T10:24:21.158Z,7.84
2024-01-05T10:25:18.970Z,7.82
2024-01-05T10:26:18.993Z,7.76
2024-01-05T10:27:19.456Z,7.73
2024-01-05T10:28:18.928Z,7.67
2024-01-05T10:29:18.944Z,7.66
2024-01-05T10:30:19.043Z,7.62
2024-01-05T10:31:19.242Z,7.58
2024-01-05T10:32:19.075Z,7.57
2024-01-05T10:33:19.036Z,7.54
2024-01-05T10:34:19.009Z,7.57
2024-01-05T10:35:18.898Z,7.55
2024-01-05T10:36:18.937Z,7.51
2024-01-05T10:37:18.875Z,7.51
2024-01-05T10:38:18.842Z,7.50
2024-01-05T10:39:18.859Z,7.47
2024-01-05T10:40:18.807Z,7.44
2024-01-05T10:41:18.820Z,7.44
2024-01-05T10:42:18.870Z,7.44
2024-01-05T10:43:18.790Z,7.47
2024-01-05T10:44:18.757Z,7.50
2024-01-05T10:45:18.782Z,7.48
2024-01-05T10:46:18.754Z,7.48
2024-01-05T10:47:18.742Z,7.48
2024-01-05T10:48:18.988Z,7.50
2024-01-05T10:49:18.789Z,7.52
2024-01-05T10:50:18.704Z,7.54
2024-01-05T10:51:18.768Z,7.55
2024-01-05T10:52:18.671Z,7.58
2024-01-05T10:53:18.686Z,7.58
2024-01-05T10:54:18.731Z,7.57
2024-01-05T10:55:18.655Z,7.57
2024-01-05T10:56:18.668Z,7.62
2024-01-05T10:57:18.646Z,7.66
2024-01-05T10:58:18.637Z,7.66
2024-01-05T10:59:18.652Z,7.69
2024-01-05T11:00:18.617Z,7.69
2024-01-05T11:01:18.640Z,7.67
2024-01-05T11:02:22.138Z,7.66
2024-01-05T11:03:18.639Z,7.69
2024-01-05T11:04:18.615Z,7.69
2024-01-05T11:05:18.585Z,7.73
2024-01-05T11:06:18.597Z,7.74
2024-01-05T11:07:18.640Z,7.76
2024-01-05T11:08:18.495Z,7.76
2024-01-05T11:09:18.574Z,7.77
2024-01-05T11:10:18.494Z,7.74
2024-01-05T11:11:18.482Z,7.76
2024-01-05T11:12:18.479Z,7.76
2024-01-05T11:13:18.453Z,7.76
2024-01-05T11:14:18.507Z,7.74
2024-01-05T11:15:18.506Z,7.74
2024-01-05T11:16:18.448Z,7.74
2024-01-05T11:17:18.424Z,7.74
2024-01-05T11:18:18.514Z,7.76
2024-01-05T11:19:18.470Z,7.79
2024-01-05T11:20:18.370Z,7.79
2024-01-05T11:21:18.461Z,7.81
2024-01-05T11:22:18.393Z,7.79
2024-01-05T11:23:18.345Z,7.81
2024-01-05T11:24:21.237Z,7.86
2024-01-05T11:25:18.331Z,7.91
2024-01-05T11:26:19.132Z,7.91
2024-01-05T11:27:18.334Z,7.94
2024-01-05T11:28:18.305Z,7.95
2024-01-05T11:29:18.282Z,7.96
2024-01-05T11:30:20.331Z,8.00
2024-01-05T11:31:18.306Z,8.02
2024-01-05T11:32:18.317Z,8.04
2024-01-05T11:33:26.329Z,8.07
2024-01-05T11:34:18.305Z,8.10
2024-01-05T11:35:18.460Z,8.13
2024-01-05T11:36:18.218Z,8.17
2024-01-05T11:37:18.213Z,8.20
2024-01-05T11:38:18.161Z,8.22
2024-01-05T11:39:18.179Z,8.24
2024-01-05T11:40:18.143Z,8.27
2024-01-05T11:41:18.159Z,8.29
2024-01-05T11:42:18.192Z,8.32
2024-01-05T11:43:18.152Z,8.34
2024-01-05T11:44:18.104Z,8.37
2024-01-05T11:45:18.121Z,8.37
2024-01-05T11:46:20.503Z,8.39
2024-01-05T11:47:18.092Z,8.39
2024-01-05T11:48:18.253Z,8.42
2024-01-05T11:49:18.119Z,8.46
2024-01-05T11:50:18.024Z,8.46
2024-01-05T11:51:18.052Z,8.49
2024-01-05T11:52:19.484Z,8.52
2024-01-05T11:53:18.035Z,8.55
2024-01-05T11:54:18.009Z,8.55
2024-01-05T11:55:18.049Z,8.57
2024-01-05T11:56:17.989Z,8.58
2024-01-05T11:57:18.022Z,8.60
2024-01-05T11:58:18.007Z,8.61
2024-01-05T11:59:17.952Z,8.65
2024-01-05T12:00:17.977Z,8.67
2024-01-05T12:01:18.170Z,8.70
2024-01-05T12:02:17.908Z,8.71
2024-01-05T12:03:18.007Z,8.73
2024-01-05T12:04:18.089Z,8.73
2024-01-05T12:05:18.016Z,8.71
2024-01-05T12:06:17.958Z,8.68
2024-01-05T12:07:17.860Z,8.71
2024-01-05T12:08:17.835Z,8.71
2024-01-05T12:09:17.885Z,8.73
2024-01-05T12:10:17.819Z,8.73
2024-01-05T12:11:17.859Z,8.73
2024-01-05T12:12:17.971Z,8.73
2024-01-05T12:13:17.800Z,8.73
2024-01-05T12:14:17.781Z,8.75
2024-01-05T12:15:17.865Z,8.71
2024-01-05T12:16:17.824Z,8.73
2024-01-05T12:17:17.837Z,8.75
2024-01-05T12:18:27.505Z,8.76
2024-01-05T12:19:17.879Z,8.78
2024-01-05T12:20:17.742Z,8.78
2024-01-05T12:21:17.770Z,8.78
2024-01-05T12:22:17.698Z,8.78
2024-01-05T12:23:17.724Z,8.79
2024-01-05T12:24:17.687Z,8.78
2024-01-05T12:25:17.696Z,8.79
2024-01-05T12:26:17.652Z,8.80
2024-01-05T12:27:17.684Z,8.79
2024-01-05T12:28:17.626Z,8.79
2024-01-05T12:29:17.625Z,8.80
2024-01-05T12:30:17.699Z,8.82
2024-01-05T12:31:17.842Z,8.83
2024-01-05T12:32:17.585Z,8.83
2024-01-05T12:33:17.675Z,8.88
2024-01-05T12:34:17.680Z,8.85
2024-01-05T12:35:17.570Z,8.83
2024-01-05T12:36:17.583Z,8.85
2024-01-05T12:37:17.558Z,8.88
2024-01-05T12:38:17.524Z,8.89
2024-01-05T12:39:17.556Z,8.86
2024-01-05T12:40:17.490Z,8.85
2024-01-05T12:41:20.195Z,8.86
2024-01-05T12:42:17.558Z,8.86
2024-01-05T12:43:17.491Z,8.83
2024-01-05T12:44:17.492Z,8.85
2024-01-05T12:45:17.527Z,8.82
2024-01-05T12:46:17.440Z,8.82
2024-01-05T12:47:17.448Z,8.79
2024-01-05T12:48:17.590Z,8.73
2024-01-05T12:49:17.487Z,8.73
2024-01-05T12:50:17.381Z,8.73
2024-01-05T12:51:17.409Z,8.73
2024-01-05T12:52:17.446Z,8.73
2024-01-05T12:53:17.374Z,8.75
2024-01-05T12:54:17.418Z,8.75
2024-01-05T12:55:17.368Z,8.73
2024-01-05T12:56:17.336Z,8.79
2024-01-05T12:57:17.399Z,8.79
2024-01-05T12:58:17.412Z,8.80
2024-01-05T12:59:17.316Z,8.85
2024-01-05T13:00:17.306Z,8.89
2024-01-05T13:01:17.330Z,8.93
2024-01-05T13:02:17.256Z,8.93
2024-01-05T13:03:17.319Z,8.97
2024-01-05T13:04:17.341Z,8.97
2024-01-05T13:05:17.258Z,8.97
2024-01-05T13:06:17.358Z,8.98
2024-01-05T13:07:17.293Z,9.01
2024-01-05T13:08:17.202Z,9.04
2024-01-05T13:09:17.267Z,9.08
2024-01-05T13:10:17.189Z,9.12
2024-01-05T13:11:17.226Z,9.16
2024-01-05T13:12:17.232Z,9.19
2024-01-05T13:13:17.164Z,9.20
2024-01-05T13:14:17.182Z,9.20
2024-01-05T13:15:17.175Z,9.20
2024-01-05T13:16:17.118Z,9.19
2024-01-05T13:17:17.134Z,9.17
2024-01-05T13:18:17.221Z,9.19